• Join FlightAware (Why Join?)
  • Login
  • US Flag 
04:57AM EDT


 

Airport Tracker/Info


-or-


 

Live Flight TrackerFlight Track Log ✈ N762NC ✈ 15-Oct-2013 ✈ KATL - KGSO

Flight Track Log - Related Links

Times and Time Zones

All times are in EDT time to prevent confusion due to time zone crossing. See the N762NC flight status page for this flight to view local times or setup timezone preferences in your user account.

Time Position Orientation Groundspeed Altitude Reporting Facility
EDT Latitude Longitude Course Direction KTS MPH feet Rate Location/Type
05:48PM 33.6500 -84.3833 64° Northeast 181 208 2,300  Level Atlanta TRACON
05:49PM 33.6667 -84.3167 73° East 257 296 3,900 1,980 Climbing Atlanta TRACON
05:50PM 33.7000 -84.2333 64° Northeast 279 321 6,100 2,220 Climbing Atlanta TRACON
05:51PM 33.8917 -83.9890 54° Northeast  Level Estimated
05:51PM 33.7333 -84.1500 64° Northeast 285 328 8,400  Level Atlanta TRACON
05:51PM 33.7525 -84.1014 65° Northeast 300 345 9,300 1,620 Climbing Atlanta Center
05:52PM 33.9398 -83.8680 64° Northeast  Level FlightAware Approximate
05:52PM 33.7942 -84.0114 61° Northeast 306 352 10,900  Level Atlanta Center
05:53PM 33.9877 -83.7469 64° Northeast  Level FlightAware Approximate
05:53PM 33.8506 -83.9186 54° Northeast 332 382 12,200  Level Atlanta Center
05:54PM 33.9025 -83.8336 54° Northeast 344 396 13,900 1,620 Climbing Atlanta Center
05:55PM 33.9672 -83.7306 53° Northeast 364 419 15,500 1,620 Climbing Atlanta Center
05:56PM 34.0336 -83.6253 53° Northeast 383 441 17,200 1,560 Climbing Atlanta Center
05:57PM 34.1000 -83.5219 52° Northeast 395 455 18,700 1,500 Climbing Atlanta Center
05:58PM 34.1661 -83.4111 54° Northeast 395 455 20,300 1,500 Climbing Atlanta Center
05:59PM 34.2344 -83.2975 54° Northeast 411 473 21,700 1,260 Climbing Atlanta Center
06:00PM 34.3047 -83.1789 54° Northeast 417 480 22,900 1,140 Climbing Atlanta Center
06:01PM 34.3789 -83.0572 54° Northeast 437 503 24,000 1,140 Climbing Atlanta Center
06:02PM 34.4528 -82.9178 57° Northeast 442 509 25,200 1,080 Climbing Atlanta Center
06:03PM 34.5225 -82.7933 56° Northeast 451 519 26,200 960 Climbing Atlanta Center
06:04PM 34.5942 -82.6611 57° Northeast 451 519 27,200 1,080 Climbing Atlanta Center
06:05PM 34.6678 -82.5311 55° Northeast 451 519 28,400 900 Climbing Atlanta Center
06:06PM 34.7414 -82.4033 55° Northeast 456 525 29,000 300 Climbing Atlanta Center
06:07PM 34.8189 -82.2703 55° Northeast 463 533 29,000  Level Atlanta Center
06:08PM 34.9025 -82.1419 52° Northeast 474 545 29,000 -240 Level Atlanta Center
06:09PM 34.9800 -82.0386 48° Northeast 468 539 28,600 -1,380 Descending Atlanta Center
06:10PM 35.0592 -81.9022 55° Northeast 475 547 26,300 -2,040 Descending Atlanta Center
06:11PM 35.1806 -81.8025 34° Northeast 469 540 24,600 -1,200 Descending Atlanta Center
06:12PM 35.2981 -81.7256 28° Northeast 471 542 24,000 -1,440 Descending Atlanta Center
06:13PM 35.4028 -81.6436 33° Northeast 460 529 21,800 -1,800 Descending Atlanta Center
06:14PM 35.5033 -81.5514 37° Northeast 450 518 20,500 -1,320 Descending Atlanta Center
06:15PM 35.6122 -81.4742 30° Northeast 440 506 19,200 -780 Descending Atlanta Center
06:16PM 35.7044 -81.3994 33° Northeast 440 506 19,000 -120 Descending Atlanta Center
06:17PM 35.8025 -81.3067 37° Northeast 440 506 19,000 -540 Level Atlanta Center
06:18PM 35.8986 -81.2189 36° Northeast 435 501 18,000 -1,800 Descending Atlanta Center
06:19PM 35.9969 -81.1436 32° Northeast 415 478 15,500 -2,640 Descending Atlanta Center
06:20PM 36.1017 -81.0681 30° Northeast 399 459 12,800 -1,980 Descending Atlanta Center
06:21PM 36.1403 -80.9508 68° East 360 414 11,600 -900 Descending Atlanta Center
06:22PM 36.1433 -80.8197 88° East 360 414 11,000 -300 Descending Atlanta Center
06:23PM 36.1378 -80.6886 93° East 376 433 11,000  Level Atlanta Center
06:24PM 36.1219 -80.5711 99° East 376 433 11,000 -480 Level Atlanta Center
06:25PM 36.0978 -80.4592 105° East 334 384 10,100 -1,020 Descending Atlanta Center
06:26PM 36.0722 -80.3678 109° East 302 348 9,000 -600 Descending Atlanta Center
06:27PM 36.0486 -80.2789 108° East 280 322 8,900 -1,080 Descending Atlanta Center
06:28PM 36.0319 -80.2078 106° East 271 312 6,900 -1,620 Descending Atlanta Center
06:29PM 35.9881 -80.1431 130° Southeast 241 277 5,700 -1,200 Descending Atlanta Center
06:30PM 35.9842 -80.0817 94° East 163 188 4,600 -1,140 Descending Atlanta Center